sensor_id;sensor_type;location;lat;lon;timestamp;P1;durP1;ratioP1;P2;durP2;ratioP2
41077;SDS011;26823;42.662;23.352;2023-02-25T00:01:06;23.90;;;13.10;;
41077;SDS011;26823;42.662;23.352;2023-02-25T00:03:34;27.02;;;13.05;;
41077;SDS011;26823;42.662;23.352;2023-02-25T00:06:04;31.23;;;13.77;;
41077;SDS011;26823;42.662;23.352;2023-02-25T00:08:31;26.38;;;13.70;;
41077;SDS011;26823;42.662;23.352;2023-02-25T00:10:57;20.95;;;12.05;;
41077;SDS011;26823;42.662;23.352;2023-02-25T00:13:29;21.08;;;12.18;;
41077;SDS011;26823;42.662;23.352;2023-02-25T00:15:56;22.52;;;12.45;;
41077;SDS011;26823;42.662;23.352;2023-02-25T00:18:24;24.00;;;13.40;;
41077;SDS011;26823;42.662;23.352;2023-02-25T00:20:51;27.65;;;13.10;;
41077;SDS011;26823;42.662;23.352;2023-02-25T00:23:16;22.17;;;12.13;;
41077;SDS011;26823;42.662;23.352;2023-02-25T00:25:42;29.25;;;13.07;;
41077;SDS011;26823;42.662;23.352;2023-02-25T00:28:07;23.23;;;12.05;;
41077;SDS011;26823;42.662;23.352;2023-02-25T00:30:33;22.33;;;12.73;;
41077;SDS011;26823;42.662;23.352;2023-02-25T00:32:59;21.98;;;12.15;;
41077;SDS011;26823;42.662;23.352;2023-02-25T00:35:25;23.52;;;12.55;;
41077;SDS011;26823;42.662;23.352;2023-02-25T00:37:51;28.70;;;13.10;;
41077;SDS011;26823;42.662;23.352;2023-02-25T00:40:16;20.88;;;12.13;;
41077;SDS011;26823;42.662;23.352;2023-02-25T00:42:42;20.23;;;11.57;;
41077;SDS011;26823;42.662;23.352;2023-02-25T00:45:14;22.63;;;12.15;;
41077;SDS011;26823;42.662;23.352;2023-02-25T00:47:39;27.85;;;12.80;;
41077;SDS011;26823;42.662;23.352;2023-02-25T00:50:05;23.08;;;11.10;;
41077;SDS011;26823;42.662;23.352;2023-02-25T00:52:33;23.08;;;11.70;;
41077;SDS011;26823;42.662;23.352;2023-02-25T00:55:01;21.92;;;11.63;;
41077;SDS011;26823;42.662;23.352;2023-02-25T00:57:26;23.60;;;11.68;;
41077;SDS011;26823;42.662;23.352;2023-02-25T00:59:52;20.75;;;11.40;;
41077;SDS011;26823;42.662;23.352;2023-02-25T01:02:24;23.65;;;11.95;;
41077;SDS011;26823;42.662;23.352;2023-02-25T01:04:50;25.15;;;12.02;;
41077;SDS011;26823;42.662;23.352;2023-02-25T01:07:15;23.40;;;10.57;;
41077;SDS011;26823;42.662;23.352;2023-02-25T01:09:41;25.13;;;11.25;;
41077;SDS011;26823;42.662;23.352;2023-02-25T01:12:07;23.25;;;11.40;;
41077;SDS011;26823;42.662;23.352;2023-02-25T01:14:33;22.65;;;11.50;;
41077;SDS011;26823;42.662;23.352;2023-02-25T01:17:04;24.95;;;11.73;;
41077;SDS011;26823;42.662;23.352;2023-02-25T01:19:30;20.83;;;11.70;;
41077;SDS011;26823;42.662;23.352;2023-02-25T01:21:56;23.05;;;11.85;;
41077;SDS011;26823;42.662;23.352;2023-02-25T01:24:23;19.55;;;10.90;;
41077;SDS011;26823;42.662;23.352;2023-02-25T01:26:52;22.42;;;11.10;;
41077;SDS011;26823;42.662;23.352;2023-02-25T01:29:20;22.67;;;11.15;;
41077;SDS011;26823;42.662;23.352;2023-02-25T01:31:47;20.27;;;10.85;;
41077;SDS011;26823;42.662;23.352;2023-02-25T01:34:16;21.23;;;10.25;;
41077;SDS011;26823;42.662;23.352;2023-02-25T01:36:42;21.10;;;10.35;;
41077;SDS011;26823;42.662;23.352;2023-02-25T01:39:09;26.10;;;12.00;;
41077;SDS011;26823;42.662;23.352;2023-02-25T01:41:35;18.15;;;10.63;;
41077;SDS011;26823;42.662;23.352;2023-02-25T01:46:41;17.88;;;9.82;;
41077;SDS011;26823;42.662;23.352;2023-02-25T01:49:10;26.95;;;10.30;;
41077;SDS011;26823;42.662;23.352;2023-02-25T01:51:36;18.45;;;9.90;;
41077;SDS011;26823;42.662;23.352;2023-02-25T01:54:02;16.98;;;9.35;;
41077;SDS011;26823;42.662;23.352;2023-02-25T01:56:30;17.45;;;9.00;;
41077;SDS011;26823;42.662;23.352;2023-02-25T01:58:57;16.13;;;10.95;;
41077;SDS011;26823;42.662;23.352;2023-02-25T02:01:24;17.75;;;9.52;;
41077;SDS011;26823;42.662;23.352;2023-02-25T02:03:51;22.15;;;10.40;;
41077;SDS011;26823;42.662;23.352;2023-02-25T02:06:22;18.50;;;9.52;;
41077;SDS011;26823;42.662;23.352;2023-02-25T02:08:52;20.65;;;10.68;;
41077;SDS011;26823;42.662;23.352;2023-02-25T02:11:18;16.80;;;9.07;;
41077;SDS011;26823;42.662;23.352;2023-02-25T02:13:44;24.30;;;9.57;;
41077;SDS011;26823;42.662;23.352;2023-02-25T02:16:16;15.15;;;8.63;;
41077;SDS011;26823;42.662;23.352;2023-02-25T02:18:57;18.50;;;10.02;;
41077;SDS011;26823;42.662;23.352;2023-02-25T02:21:42;15.65;;;8.10;;
41077;SDS011;26823;42.662;23.352;2023-02-25T02:27:19;18.25;;;9.52;;
41077;SDS011;26823;42.662;23.352;2023-02-25T02:32:37;17.00;;;8.70;;
41077;SDS011;26823;42.662;23.352;2023-02-25T02:35:22;17.23;;;9.23;;
41077;SDS011;26823;42.662;23.352;2023-02-25T02:41:02;15.35;;;8.63;;
41077;SDS011;26823;42.662;23.352;2023-02-25T02:46:34;16.50;;;8.85;;
41077;SDS011;26823;42.662;23.352;2023-02-25T02:49:07;13.77;;;9.02;;
41077;SDS011;26823;42.662;23.352;2023-02-25T02:51:52;17.83;;;9.18;;
41077;SDS011;26823;42.662;23.352;2023-02-25T02:54:23;17.48;;;8.40;;
41077;SDS011;26823;42.662;23.352;2023-02-25T02:56:51;16.67;;;9.20;;
41077;SDS011;26823;42.662;23.352;2023-02-25T02:59:22;16.42;;;9.75;;
41077;SDS011;26823;42.662;23.352;2023-02-25T03:01:52;16.50;;;8.63;;
41077;SDS011;26823;42.662;23.352;2023-02-25T03:04:40;18.48;;;9.02;;
41077;SDS011;26823;42.662;23.352;2023-02-25T03:07:09;18.70;;;9.35;;
41077;SDS011;26823;42.662;23.352;2023-02-25T03:09:51;17.08;;;9.13;;
41077;SDS011;26823;42.662;23.352;2023-02-25T03:12:19;18.13;;;8.68;;
41077;SDS011;26823;42.662;23.352;2023-02-25T03:14:44;16.73;;;8.95;;
41077;SDS011;26823;42.662;23.352;2023-02-25T03:19:55;16.83;;;9.02;;
41077;SDS011;26823;42.662;23.352;2023-02-25T03:22:28;20.80;;;10.02;;
41077;SDS011;26823;42.662;23.352;2023-02-25T03:25:02;23.50;;;9.40;;
41077;SDS011;26823;42.662;23.352;2023-02-25T03:32:30;17.48;;;9.13;;
41077;SDS011;26823;42.662;23.352;2023-02-25T03:34:58;19.27;;;9.57;;
41077;SDS011;26823;42.662;23.352;2023-02-25T03:37:27;17.42;;;9.52;;
41077;SDS011;26823;42.662;23.352;2023-02-25T03:39:58;16.85;;;9.32;;
41077;SDS011;26823;42.662;23.352;2023-02-25T03:42:32;21.25;;;9.65;;
41077;SDS011;26823;42.662;23.352;2023-02-25T03:45:01;16.42;;;9.27;;
41077;SDS011;26823;42.662;23.352;2023-02-25T03:47:30;20.30;;;9.73;;
41077;SDS011;26823;42.662;23.352;2023-02-25T03:50:10;17.40;;;9.00;;
41077;SDS011;26823;42.662;23.352;2023-02-25T03:52:40;22.25;;;10.77;;
41077;SDS011;26823;42.662;23.352;2023-02-25T03:55:06;14.77;;;9.25;;
41077;SDS011;26823;42.662;23.352;2023-02-25T03:57:37;26.67;;;10.65;;
41077;SDS011;26823;42.662;23.352;2023-02-25T04:00:06;19.83;;;9.45;;
41077;SDS011;26823;42.662;23.352;2023-02-25T04:02:52;22.70;;;9.90;;
41077;SDS011;26823;42.662;23.352;2023-02-25T04:05:18;17.67;;;9.48;;
41077;SDS011;26823;42.662;23.352;2023-02-25T04:07:45;23.58;;;9.77;;
41077;SDS011;26823;42.662;23.352;2023-02-25T04:10:11;21.10;;;9.82;;
41077;SDS011;26823;42.662;23.352;2023-02-25T04:12:39;16.90;;;8.80;;
41077;SDS011;26823;42.662;23.352;2023-02-25T04:15:05;19.13;;;9.95;;
41077;SDS011;26823;42.662;23.352;2023-02-25T04:17:32;18.35;;;9.70;;
41077;SDS011;26823;42.662;23.352;2023-02-25T04:19:58;21.25;;;9.82;;
41077;SDS011;26823;42.662;23.352;2023-02-25T04:22:24;18.15;;;10.13;;
41077;SDS011;26823;42.662;23.352;2023-02-25T04:24:49;17.95;;;9.15;;
41077;SDS011;26823;42.662;23.352;2023-02-25T04:27:15;16.83;;;9.10;;
41077;SDS011;26823;42.662;23.352;2023-02-25T04:29:40;18.63;;;9.73;;
41077;SDS011;26823;42.662;23.352;2023-02-25T04:32:07;18.15;;;10.15;;
41077;SDS011;26823;42.662;23.352;2023-02-25T04:34:33;22.48;;;9.15;;
41077;SDS011;26823;42.662;23.352;2023-02-25T04:36:58;18.38;;;10.20;;
41077;SDS011;26823;42.662;23.352;2023-02-25T04:39:26;18.67;;;9.73;;
41077;SDS011;26823;42.662;23.352;2023-02-25T04:41:52;16.88;;;9.77;;
41077;SDS011;26823;42.662;23.352;2023-02-25T04:44:18;19.30;;;8.80;;
41077;SDS011;26823;42.662;23.352;2023-02-25T04:46:44;18.92;;;9.68;;
41077;SDS011;26823;42.662;23.352;2023-02-25T04:49:09;18.63;;;9.18;;
41077;SDS011;26823;42.662;23.352;2023-02-25T04:51:36;21.23;;;10.43;;
41077;SDS011;26823;42.662;23.352;2023-02-25T04:54:02;26.58;;;9.68;;
41077;SDS011;26823;42.662;23.352;2023-02-25T04:56:28;20.50;;;10.30;;
41077;SDS011;26823;42.662;23.352;2023-02-25T04:58:53;18.75;;;9.70;;
41077;SDS011;26823;42.662;23.352;2023-02-25T05:01:21;19.77;;;10.80;;
41077;SDS011;26823;42.662;23.352;2023-02-25T05:03:46;18.73;;;9.05;;
41077;SDS011;26823;42.662;23.352;2023-02-25T05:06:12;30.52;;;10.77;;
41077;SDS011;26823;42.662;23.352;2023-02-25T05:08:37;18.10;;;8.98;;
41077;SDS011;26823;42.662;23.352;2023-02-25T05:11:03;25.60;;;9.60;;
41077;SDS011;26823;42.662;23.352;2023-02-25T05:13:29;20.48;;;9.35;;
41077;SDS011;26823;42.662;23.352;2023-02-25T05:16:02;17.98;;;10.20;;
41077;SDS011;26823;42.662;23.352;2023-02-25T05:18:33;17.63;;;9.60;;
41077;SDS011;26823;42.662;23.352;2023-02-25T05:21:00;19.10;;;9.68;;
41077;SDS011;26823;42.662;23.352;2023-02-25T05:23:25;18.45;;;9.65;;
41077;SDS011;26823;42.662;23.352;2023-02-25T05:25:51;18.60;;;9.95;;
41077;SDS011;26823;42.662;23.352;2023-02-25T05:28:16;21.77;;;9.75;;
41077;SDS011;26823;42.662;23.352;2023-02-25T05:30:42;22.00;;;10.52;;
41077;SDS011;26823;42.662;23.352;2023-02-25T05:33:07;17.83;;;9.07;;
41077;SDS011;26823;42.662;23.352;2023-02-25T05:35:33;18.80;;;10.48;;
41077;SDS011;26823;42.662;23.352;2023-02-25T05:37:58;19.70;;;10.70;;
41077;SDS011;26823;42.662;23.352;2023-02-25T05:40:24;20.45;;;10.43;;
41077;SDS011;26823;42.662;23.352;2023-02-25T05:42:50;22.48;;;10.32;;
41077;SDS011;26823;42.662;23.352;2023-02-25T05:45:15;24.95;;;12.32;;
41077;SDS011;26823;42.662;23.352;2023-02-25T05:47:42;21.48;;;11.18;;
41077;SDS011;26823;42.662;23.352;2023-02-25T05:50:08;19.40;;;10.20;;
41077;SDS011;26823;42.662;23.352;2023-02-25T05:52:34;20.10;;;10.20;;
41077;SDS011;26823;42.662;23.352;2023-02-25T05:54:59;23.52;;;10.30;;
41077;SDS011;26823;42.662;23.352;2023-02-25T05:57:26;22.00;;;11.15;;
41077;SDS011;26823;42.662;23.352;2023-02-25T05:59:51;18.63;;;9.10;;
41077;SDS011;26823;42.662;23.352;2023-02-25T06:02:16;15.70;;;9.60;;
41077;SDS011;26823;42.662;23.352;2023-02-25T06:04:42;18.90;;;11.02;;
41077;SDS011;26823;42.662;23.352;2023-02-25T06:07:07;23.27;;;11.05;;
41077;SDS011;26823;42.662;23.352;2023-02-25T06:09:33;23.88;;;10.35;;
41077;SDS011;26823;42.662;23.352;2023-02-25T06:12:01;20.38;;;10.52;;
41077;SDS011;26823;42.662;23.352;2023-02-25T06:14:27;20.40;;;10.77;;
41077;SDS011;26823;42.662;23.352;2023-02-25T06:16:52;21.58;;;10.43;;
41077;SDS011;26823;42.662;23.352;2023-02-25T06:19:21;23.90;;;11.98;;
41077;SDS011;26823;42.662;23.352;2023-02-25T06:21:50;28.70;;;12.02;;
41077;SDS011;26823;42.662;23.352;2023-02-25T06:24:16;20.35;;;11.40;;
41077;SDS011;26823;42.662;23.352;2023-02-25T06:26:41;20.85;;;12.02;;
41077;SDS011;26823;42.662;23.352;2023-02-25T06:29:08;22.90;;;11.90;;
41077;SDS011;26823;42.662;23.352;2023-02-25T06:31:34;20.10;;;11.20;;
41077;SDS011;26823;42.662;23.352;2023-02-25T06:34:00;25.88;;;13.00;;
41077;SDS011;26823;42.662;23.352;2023-02-25T06:36:25;25.40;;;12.75;;
41077;SDS011;26823;42.662;23.352;2023-02-25T06:38:51;18.95;;;9.93;;
41077;SDS011;26823;42.662;23.352;2023-02-25T06:41:18;20.40;;;10.90;;
41077;SDS011;26823;42.662;23.352;2023-02-25T06:43:45;28.40;;;10.80;;
41077;SDS011;26823;42.662;23.352;2023-02-25T06:46:12;25.05;;;10.80;;
41077;SDS011;26823;42.662;23.352;2023-02-25T06:48:38;24.45;;;11.95;;
41077;SDS011;26823;42.662;23.352;2023-02-25T06:51:05;19.33;;;10.48;;
41077;SDS011;26823;42.662;23.352;2023-02-25T06:53:37;19.13;;;10.05;;
41077;SDS011;26823;42.662;23.352;2023-02-25T06:56:04;21.95;;;10.50;;
41077;SDS011;26823;42.662;23.352;2023-02-25T06:58:32;18.42;;;10.00;;
41077;SDS011;26823;42.662;23.352;2023-02-25T07:00:59;24.60;;;10.50;;
41077;SDS011;26823;42.662;23.352;2023-02-25T07:03:25;22.75;;;11.45;;
41077;SDS011;26823;42.662;23.352;2023-02-25T07:05:51;17.92;;;10.63;;
41077;SDS011;26823;42.662;23.352;2023-02-25T07:08:16;22.17;;;10.27;;
41077;SDS011;26823;42.662;23.352;2023-02-25T07:10:41;17.63;;;9.05;;
41077;SDS011;26823;42.662;23.352;2023-02-25T07:13:07;18.02;;;9.75;;
41077;SDS011;26823;42.662;23.352;2023-02-25T07:15:34;15.82;;;9.52;;
41077;SDS011;26823;42.662;23.352;2023-02-25T07:18:00;15.85;;;9.68;;
41077;SDS011;26823;42.662;23.352;2023-02-25T07:20:25;16.40;;;9.02;;
41077;SDS011;26823;42.662;23.352;2023-02-25T07:22:51;20.38;;;9.68;;
41077;SDS011;26823;42.662;23.352;2023-02-25T07:25:16;19.80;;;9.45;;
41077;SDS011;26823;42.662;23.352;2023-02-25T07:27:42;20.42;;;10.13;;
41077;SDS011;26823;42.662;23.352;2023-02-25T07:30:09;20.27;;;9.75;;
41077;SDS011;26823;42.662;23.352;2023-02-25T07:32:38;17.92;;;10.05;;
41077;SDS011;26823;42.662;23.352;2023-02-25T07:35:04;18.90;;;8.80;;
41077;SDS011;26823;42.662;23.352;2023-02-25T07:37:30;16.88;;;8.32;;
41077;SDS011;26823;42.662;23.352;2023-02-25T07:39:55;17.83;;;9.40;;
41077;SDS011;26823;42.662;23.352;2023-02-25T07:42:24;16.40;;;9.20;;
41077;SDS011;26823;42.662;23.352;2023-02-25T07:44:52;13.57;;;8.55;;
41077;SDS011;26823;42.662;23.352;2023-02-25T07:47:18;15.43;;;8.50;;
41077;SDS011;26823;42.662;23.352;2023-02-25T07:49:44;19.88;;;8.35;;
41077;SDS011;26823;42.662;23.352;2023-02-25T07:52:09;19.10;;;8.57;;
41077;SDS011;26823;42.662;23.352;2023-02-25T07:54:35;17.60;;;8.30;;
41077;SDS011;26823;42.662;23.352;2023-02-25T07:57:00;18.65;;;8.73;;
41077;SDS011;26823;42.662;23.352;2023-02-25T07:59:25;17.05;;;8.50;;
41077;SDS011;26823;42.662;23.352;2023-02-25T08:01:51;14.43;;;9.15;;
41077;SDS011;26823;42.662;23.352;2023-02-25T08:04:16;14.57;;;8.13;;
41077;SDS011;26823;42.662;23.352;2023-02-25T08:06:42;18.58;;;8.95;;
41077;SDS011;26823;42.662;23.352;2023-02-25T08:09:08;18.75;;;9.25;;
41077;SDS011;26823;42.662;23.352;2023-02-25T08:11:37;17.63;;;7.70;;
41077;SDS011;26823;42.662;23.352;2023-02-25T08:14:04;18.27;;;9.25;;
41077;SDS011;26823;42.662;23.352;2023-02-25T08:16:30;16.77;;;8.52;;
41077;SDS011;26823;42.662;23.352;2023-02-25T08:18:56;16.60;;;8.82;;
41077;SDS011;26823;42.662;23.352;2023-02-25T08:21:22;18.00;;;8.88;;
41077;SDS011;26823;42.662;23.352;2023-02-25T08:23:49;25.92;;;8.45;;
41077;SDS011;26823;42.662;23.352;2023-02-25T08:26:18;22.30;;;8.77;;
41077;SDS011;26823;42.662;23.352;2023-02-25T08:28:46;22.92;;;9.90;;
41077;SDS011;26823;42.662;23.352;2023-02-25T08:31:12;19.33;;;8.60;;
41077;SDS011;26823;42.662;23.352;2023-02-25T08:33:38;20.02;;;8.93;;
41077;SDS011;26823;42.662;23.352;2023-02-25T08:36:07;17.23;;;8.48;;
41077;SDS011;26823;42.662;23.352;2023-02-25T08:38:40;20.00;;;9.68;;
41077;SDS011;26823;42.662;23.352;2023-02-25T08:41:06;14.80;;;8.00;;
41077;SDS011;26823;42.662;23.352;2023-02-25T08:43:33;19.52;;;9.23;;
41077;SDS011;26823;42.662;23.352;2023-02-25T08:45:59;19.95;;;9.35;;
41077;SDS011;26823;42.662;23.352;2023-02-25T08:48:24;18.52;;;8.30;;
41077;SDS011;26823;42.662;23.352;2023-02-25T08:50:50;26.35;;;9.00;;
41077;SDS011;26823;42.662;23.352;2023-02-25T08:53:16;18.58;;;9.23;;
41077;SDS011;26823;42.662;23.352;2023-02-25T08:55:41;15.90;;;10.00;;
41077;SDS011;26823;42.662;23.352;2023-02-25T08:58:07;22.50;;;8.95;;
41077;SDS011;26823;42.662;23.352;2023-02-25T09:00:32;18.55;;;8.63;;
41077;SDS011;26823;42.662;23.352;2023-02-25T09:02:58;20.08;;;9.65;;
41077;SDS011;26823;42.662;23.352;2023-02-25T09:05:23;25.05;;;10.32;;
41077;SDS011;26823;42.662;23.352;2023-02-25T09:07:50;22.63;;;10.13;;
41077;SDS011;26823;42.662;23.352;2023-02-25T09:10:16;17.45;;;9.68;;
41077;SDS011;26823;42.662;23.352;2023-02-25T09:12:42;23.45;;;9.70;;
41077;SDS011;26823;42.662;23.352;2023-02-25T09:15:08;19.85;;;9.13;;
41077;SDS011;26823;42.662;23.352;2023-02-25T09:17:35;19.75;;;9.50;;
41077;SDS011;26823;42.662;23.352;2023-02-25T09:20:01;18.55;;;8.68;;
41077;SDS011;26823;42.662;23.352;2023-02-25T09:22:31;25.52;;;9.90;;
41077;SDS011;26823;42.662;23.352;2023-02-25T09:24:57;22.80;;;11.27;;
41077;SDS011;26823;42.662;23.352;2023-02-25T09:27:23;21.48;;;10.25;;
41077;SDS011;26823;42.662;23.352;2023-02-25T09:29:48;24.63;;;9.85;;
41077;SDS011;26823;42.662;23.352;2023-02-25T09:32:18;28.67;;;10.95;;
41077;SDS011;26823;42.662;23.352;2023-02-25T09:34:45;18.73;;;9.15;;
41077;SDS011;26823;42.662;23.352;2023-02-25T09:37:13;19.42;;;8.90;;
41077;SDS011;26823;42.662;23.352;2023-02-25T09:39:38;33.33;;;9.88;;
41077;SDS011;26823;42.662;23.352;2023-02-25T09:44:56;20.75;;;9.95;;
41077;SDS011;26823;42.662;23.352;2023-02-25T09:48:09;19.52;;;10.73;;
41077;SDS011;26823;42.662;23.352;2023-02-25T09:53:04;27.03;;;12.47;;
41077;SDS011;26823;42.662;23.352;2023-02-25T09:55:38;20.85;;;11.27;;
41077;SDS011;26823;42.662;23.352;2023-02-25T10:00:43;16.92;;;9.25;;
41077;SDS011;26823;42.662;23.352;2023-02-25T10:28:20;26.75;;;10.48;;
41077;SDS011;26823;42.662;23.352;2023-02-25T10:30:55;14.90;;;8.77;;
41077;SDS011;26823;42.662;23.352;2023-02-25T10:33:26;23.52;;;9.82;;
41077;SDS011;26823;42.662;23.352;2023-02-25T10:36:00;26.63;;;9.80;;
41077;SDS011;26823;42.662;23.352;2023-02-25T10:38:33;21.77;;;9.05;;
41077;SDS011;26823;42.662;23.352;2023-02-25T10:41:01;23.88;;;9.57;;
41077;SDS011;26823;42.662;23.352;2023-02-25T10:43:29;19.35;;;8.85;;
41077;SDS011;26823;42.662;23.352;2023-02-25T10:45:59;23.92;;;10.63;;
41077;SDS011;26823;42.662;23.352;2023-02-25T10:48:33;21.65;;;9.48;;
41077;SDS011;26823;42.662;23.352;2023-02-25T10:51:09;23.77;;;11.00;;
41077;SDS011;26823;42.662;23.352;2023-02-25T10:53:40;23.95;;;10.30;;
41077;SDS011;26823;42.662;23.352;2023-02-25T10:56:37;25.15;;;11.00;;
41077;SDS011;26823;42.662;23.352;2023-02-25T11:01:54;17.52;;;8.77;;
41077;SDS011;26823;42.662;23.352;2023-02-25T11:04:24;24.05;;;9.68;;
41077;SDS011;26823;42.662;23.352;2023-02-25T11:06:55;19.65;;;9.38;;
41077;SDS011;26823;42.662;23.352;2023-02-25T11:11:56;22.02;;;10.00;;
41077;SDS011;26823;42.662;23.352;2023-02-25T11:14:34;22.27;;;9.38;;
41077;SDS011;26823;42.662;23.352;2023-02-25T11:19:59;27.80;;;10.40;;
41077;SDS011;26823;42.662;23.352;2023-02-25T11:22:38;17.45;;;9.35;;
41077;SDS011;26823;42.662;23.352;2023-02-25T11:25:17;21.25;;;8.20;;
41077;SDS011;26823;42.662;23.352;2023-02-25T11:27:51;21.05;;;9.57;;
41077;SDS011;26823;42.662;23.352;2023-02-25T11:30:29;20.23;;;8.05;;
41077;SDS011;26823;42.662;23.352;2023-02-25T11:32:57;24.02;;;7.38;;
41077;SDS011;26823;42.662;23.352;2023-02-25T11:35:25;16.13;;;8.50;;
41077;SDS011;26823;42.662;23.352;2023-02-25T11:37:54;17.05;;;8.55;;
41077;SDS011;26823;42.662;23.352;2023-02-25T11:40:31;16.73;;;7.22;;
41077;SDS011;26823;42.662;23.352;2023-02-25T11:45:30;14.93;;;6.43;;
41077;SDS011;26823;42.662;23.352;2023-02-25T11:47:58;21.73;;;7.60;;
41077;SDS011;26823;42.662;23.352;2023-02-25T11:50:36;21.23;;;7.00;;
41077;SDS011;26823;42.662;23.352;2023-02-25T12:15:15;14.65;;;5.95;;
41077;SDS011;26823;42.662;23.352;2023-02-25T12:18:48;20.98;;;6.50;;
41077;SDS011;26823;42.662;23.352;2023-02-25T12:44:28;21.67;;;3.45;;
41077;SDS011;26823;42.662;23.352;2023-02-25T13:24:44;7.75;;;3.50;;
41077;SDS011;26823;42.662;23.352;2023-02-25T13:27:26;16.63;;;3.90;;
41077;SDS011;26823;42.662;23.352;2023-02-25T13:30:20;10.25;;;3.65;;
41077;SDS011;26823;42.662;23.352;2023-02-25T13:58:38;7.88;;;3.33;;
41077;SDS011;26823;42.662;23.352;2023-02-25T14:01:18;13.57;;;5.10;;
41077;SDS011;26823;42.662;23.352;2023-02-25T14:25:53;13.65;;;3.50;;
41077;SDS011;26823;42.662;23.352;2023-02-25T14:28:44;14.98;;;4.45;;
41077;SDS011;26823;42.662;23.352;2023-02-25T14:51:09;9.70;;;3.72;;
41077;SDS011;26823;42.662;23.352;2023-02-25T14:53:38;16.10;;;4.03;;
41077;SDS011;26823;42.662;23.352;2023-02-25T15:04:31;10.60;;;4.72;;
41077;SDS011;26823;42.662;23.352;2023-02-25T15:20:49;9.57;;;3.58;;
41077;SDS011;26823;42.662;23.352;2023-02-25T15:23:15;10.45;;;3.28;;
41077;SDS011;26823;42.662;23.352;2023-02-25T15:43:51;17.50;;;4.68;;
41077;SDS011;26823;42.662;23.352;2023-02-25T15:49:00;12.63;;;4.88;;
41077;SDS011;26823;42.662;23.352;2023-02-25T15:51:40;9.18;;;4.22;;
41077;SDS011;26823;42.662;23.352;2023-02-25T15:55:02;15.48;;;3.85;;
41077;SDS011;26823;42.662;23.352;2023-02-25T15:57:02;13.85;;;3.92;;
41077;SDS011;26823;42.662;23.352;2023-02-25T16:04:52;10.00;;;3.35;;
41077;SDS011;26823;42.662;23.352;2023-02-25T16:07:19;14.75;;;3.83;;
41077;SDS011;26823;42.662;23.352;2023-02-25T16:10:07;20.67;;;5.47;;
41077;SDS011;26823;42.662;23.352;2023-02-25T16:12:43;15.13;;;4.50;;
41077;SDS011;26823;42.662;23.352;2023-02-25T16:15:19;20.00;;;4.00;;
41077;SDS011;26823;42.662;23.352;2023-02-25T16:17:45;10.50;;;4.03;;
41077;SDS011;26823;42.662;23.352;2023-02-25T16:22:51;7.25;;;3.20;;
41077;SDS011;26823;42.662;23.352;2023-02-25T16:25:23;11.48;;;3.38;;
41077;SDS011;26823;42.662;23.352;2023-02-25T16:28:00;11.13;;;3.38;;
41077;SDS011;26823;42.662;23.352;2023-02-25T16:30:39;13.15;;;4.30;;
41077;SDS011;26823;42.662;23.352;2023-02-25T16:33:23;19.70;;;3.58;;
41077;SDS011;26823;42.662;23.352;2023-02-25T16:35:56;10.30;;;3.88;;
41077;SDS011;26823;42.662;23.352;2023-02-25T16:41:07;12.60;;;3.75;;
41077;SDS011;26823;42.662;23.352;2023-02-25T16:43:35;7.80;;;3.35;;
41077;SDS011;26823;42.662;23.352;2023-02-25T16:46:03;16.35;;;4.47;;
41077;SDS011;26823;42.662;23.352;2023-02-25T16:53:46;10.20;;;3.30;;
41077;SDS011;26823;42.662;23.352;2023-02-25T16:56:17;16.05;;;4.32;;
41077;SDS011;26823;42.662;23.352;2023-02-25T17:01:30;18.87;;;4.80;;
41077;SDS011;26823;42.662;23.352;2023-02-25T17:04:15;11.73;;;3.85;;
41077;SDS011;26823;42.662;23.352;2023-02-25T17:06:41;8.20;;;4.18;;
41077;SDS011;26823;42.662;23.352;2023-02-25T17:09:11;17.60;;;4.22;;
41077;SDS011;26823;42.662;23.352;2023-02-25T17:11:49;9.48;;;3.97;;
41077;SDS011;26823;42.662;23.352;2023-02-25T17:14:18;14.27;;;3.80;;
41077;SDS011;26823;42.662;23.352;2023-02-25T17:16:44;14.88;;;4.28;;
41077;SDS011;26823;42.662;23.352;2023-02-25T17:19:11;12.48;;;3.58;;
41077;SDS011;26823;42.662;23.352;2023-02-25T17:21:42;12.05;;;3.13;;
41077;SDS011;26823;42.662;23.352;2023-02-25T17:24:14;12.65;;;4.15;;
41077;SDS011;26823;42.662;23.352;2023-02-25T17:26:44;15.00;;;4.65;;
41077;SDS011;26823;42.662;23.352;2023-02-25T17:29:13;11.48;;;4.22;;
41077;SDS011;26823;42.662;23.352;2023-02-25T17:31:46;10.77;;;3.85;;
41077;SDS011;26823;42.662;23.352;2023-02-25T17:34:13;10.23;;;2.90;;
41077;SDS011;26823;42.662;23.352;2023-02-25T17:36:41;13.65;;;4.90;;
41077;SDS011;26823;42.662;23.352;2023-02-25T17:39:11;12.75;;;3.60;;
41077;SDS011;26823;42.662;23.352;2023-02-25T17:41:39;12.23;;;3.85;;
41077;SDS011;26823;42.662;23.352;2023-02-25T17:44:09;9.05;;;3.88;;
41077;SDS011;26823;42.662;23.352;2023-02-25T17:46:36;10.52;;;3.85;;
41077;SDS011;26823;42.662;23.352;2023-02-25T17:49:20;18.33;;;4.65;;
41077;SDS011;26823;42.662;23.352;2023-02-25T17:51:53;16.15;;;5.10;;
41077;SDS011;26823;42.662;23.352;2023-02-25T17:54:21;15.88;;;4.82;;
41077;SDS011;26823;42.662;23.352;2023-02-25T17:56:56;14.68;;;4.88;;
41077;SDS011;26823;42.662;23.352;2023-02-25T17:59:31;11.35;;;3.50;;
41077;SDS011;26823;42.662;23.352;2023-02-25T18:02:01;6.75;;;3.60;;
41077;SDS011;26823;42.662;23.352;2023-02-25T18:04:35;12.15;;;4.07;;
41077;SDS011;26823;42.662;23.352;2023-02-25T18:09:42;12.73;;;5.38;;
41077;SDS011;26823;42.662;23.352;2023-02-25T18:12:13;9.00;;;4.10;;
41077;SDS011;26823;42.662;23.352;2023-02-25T18:14:46;9.15;;;4.72;;
41077;SDS011;26823;42.662;23.352;2023-02-25T18:19:48;6.88;;;3.60;;
41077;SDS011;26823;42.662;23.352;2023-02-25T18:22:24;12.77;;;3.78;;
41077;SDS011;26823;42.662;23.352;2023-02-25T18:24:55;9.18;;;4.93;;
41077;SDS011;26823;42.662;23.352;2023-02-25T18:27:26;9.80;;;3.70;;
41077;SDS011;26823;42.662;23.352;2023-02-25T18:29:57;9.63;;;3.80;;
41077;SDS011;26823;42.662;23.352;2023-02-25T18:32:28;12.80;;;3.92;;
41077;SDS011;26823;42.662;23.352;2023-02-25T18:34:54;10.13;;;4.70;;
41077;SDS011;26823;42.662;23.352;2023-02-25T18:37:19;11.23;;;4.30;;
41077;SDS011;26823;42.662;23.352;2023-02-25T18:39:45;13.60;;;4.40;;
41077;SDS011;26823;42.662;23.352;2023-02-25T18:42:12;24.02;;;4.45;;
41077;SDS011;26823;42.662;23.352;2023-02-25T18:44:40;11.90;;;4.50;;
41077;SDS011;26823;42.662;23.352;2023-02-25T18:47:06;9.13;;;3.60;;
41077;SDS011;26823;42.662;23.352;2023-02-25T18:49:32;11.93;;;3.88;;
41077;SDS011;26823;42.662;23.352;2023-02-25T18:51:57;10.23;;;3.45;;
41077;SDS011;26823;42.662;23.352;2023-02-25T18:54:22;10.82;;;4.57;;
41077;SDS011;26823;42.662;23.352;2023-02-25T18:56:48;5.65;;;3.42;;
41077;SDS011;26823;42.662;23.352;2023-02-25T18:59:13;8.20;;;4.20;;
41077;SDS011;26823;42.662;23.352;2023-02-25T19:01:39;16.00;;;4.32;;
41077;SDS011;26823;42.662;23.352;2023-02-25T19:04:05;10.52;;;4.65;;
41077;SDS011;26823;42.662;23.352;2023-02-25T19:06:30;10.02;;;4.53;;
41077;SDS011;26823;42.662;23.352;2023-02-25T19:08:58;12.20;;;4.80;;
41077;SDS011;26823;42.662;23.352;2023-02-25T19:11:25;12.00;;;4.50;;
41077;SDS011;26823;42.662;23.352;2023-02-25T19:13:53;14.60;;;4.10;;